CheckWX is a tool to help pilots better visualize weather data.  It is not intended as a substitute for an official pre-flight weather briefing.

03:17:34 UTC

KMLC TAF
Mc Alester Regional Airport
Mc Alester, Oklahoma, USA
KMLC 012320Z 0200/0224 17011KT P6SM BKN250 FM020600 17011KT P6SM BKN250 WS020/18040KT FM021200 16011KT P6SM BKN100 WS020/18045KT FM021500 17015G23KT P6SM BKN100 PROB30 0216/0220 -SHRA BKN050

Apr-2@
00:00 UTC

Apr-2 @ 00:00 UTC

Apr-2@
06:00 UTC

Apr-2 @ 06:00 UTC

TAF KMLC 012320Z 0200/0224 17011KT P6SM BKN250
Wind
  • 170° at 11 KTS
Cloud Levels
  • Broken at 25,000' AGL

Apr-2@
06:00 UTC

Apr-2 @ 06:00 UTC

Apr-2@
12:00 UTC

Apr-2 @ 12:00 UTC

FM020600 17011KT P6SM BKN250 WS020/18040KT

From

From Standard forecast or significant change

Wind
  • 170° at 11 KTS
Cloud Levels
  • Broken at 25,000' AGL

Apr-2@
12:00 UTC

Apr-2 @ 12:00 UTC

Apr-2@
15:00 UTC

Apr-2 @ 15:00 UTC

FM021200 16011KT P6SM BKN100 WS020/18045KT

From

From Standard forecast or significant change

Wind
  • 160° at 11 KTS
Cloud Levels
  • Broken at 10,000' AGL

Apr-2@
15:00 UTC

Apr-2 @ 15:00 UTC

Apr-3@
00:00 UTC

Apr-3 @ 00:00 UTC

FM021500 17015G23KT P6SM BKN100

From

From Standard forecast or significant change

Wind
  • 170° at 15 KTS
  • {Gusting to 23 KTS
Cloud Levels
  • Broken at 10,000' AGL

Apr-2@
16:00 UTC

Apr-2 @ 16:00 UTC

Apr-2@
20:00 UTC

Apr-2 @ 20:00 UTC

PROB30 0216/0220 -SHRA BKN050

Probable - 30% Likelihood

Probable - 30% Likelihood during this time.

Conditions
Light Showers, Rain
Cloud Levels
  • Broken at 5,000' AGL